Time;durP1;ratioP1;P1;durP2;ratioP2;P2;SDS_P1;SDS_P2;PMS_P1;PMS_P2;Temp;Humidity;BMP_temperature;BMP_pressure;BME280_temperature;BME280_humidity;BME280_pressure;Samples;Min_cycle;Max_cycle;Signal;HPM_P1;HPM_P2
2022/03/26 00:02:17;;;;;;;9.90;6.20;;;20.60;50.10;;;;;;4880874;29;20201;-57
2022/03/26 00:04:43;;;;;;;10.85;6.40;;;20.60;50.10;;;;;;4881150;29;20060;-57
2022/03/26 00:07:08;;;;;;;11.32;6.50;;;20.60;50.10;;;;;;4880456;29;20045;-58
2022/03/26 00:09:34;;;;;;;10.93;6.25;;;20.60;50.10;;;;;;4881093;29;20064;-57
2022/03/26 00:11:59;;;;;;;9.35;6.25;;;20.60;50.10;;;;;;4880967;29;20497;-58
2022/03/26 00:14:25;;;;;;;10.48;6.13;;;20.60;50.00;;;;;;4879802;29;20057;-58
2022/03/26 00:16:50;;;;;;;11.52;6.20;;;20.60;50.00;;;;;;4881107;29;20053;-58
2022/03/26 00:19:16;;;;;;;9.15;6.05;;;20.50;49.90;;;;;;4880796;29;20442;-57
2022/03/26 00:21:42;;;;;;;11.63;6.22;;;20.50;49.80;;;;;;4880233;29;20498;-57
2022/03/26 00:24:07;;;;;;;11.38;6.32;;;20.50;49.80;;;;;;4880639;29;20049;-57
2022/03/26 00:26:33;;;;;;;12.20;6.63;;;20.50;49.80;;;;;;4879057;29;20080;-58
2022/03/26 00:28:59;;;;;;;9.68;5.97;;;20.50;49.80;;;;;;4880917;29;20123;-57
2022/03/26 00:31:25;;;;;;;10.13;6.43;;;20.50;49.80;;;;;;4880304;29;20099;-57
2022/03/26 00:33:53;;;;;;;9.45;6.40;;;20.50;49.70;;;;;;4879704;29;20529;-57
2022/03/26 00:36:19;;;;;;;11.05;6.65;;;20.50;49.70;;;;;;4880100;29;20386;-57
2022/03/26 00:38:45;;;;;;;11.98;6.60;;;20.50;49.70;;;;;;4880431;29;20055;-57
2022/03/26 00:41:11;;;;;;;11.02;6.47;;;20.50;49.70;;;;;;4879099;29;20044;-58
2022/03/26 00:43:36;;;;;;;11.70;6.57;;;20.40;49.60;;;;;;4880277;29;20447;-57
2022/03/26 00:46:02;;;;;;;10.68;6.40;;;20.40;49.60;;;;;;4879373;29;20053;-57
2022/03/26 00:48:27;;;;;;;9.82;6.68;;;20.40;49.60;;;;;;4879389;29;20041;-57
2022/03/26 00:50:53;;;;;;;11.85;6.22;;;20.40;49.50;;;;;;4880366;29;20053;-57
2022/03/26 00:53:18;;;;;;;12.85;6.95;;;20.40;49.50;;;;;;4879763;29;20128;-57
2022/03/26 00:55:44;;;;;;;10.95;6.28;;;20.40;49.50;;;;;;4879485;29;20068;-57
2022/03/26 00:58:09;;;;;;;11.23;6.47;;;20.40;49.50;;;;;;4879911;29;20097;-57
2022/03/26 01:00:35;;;;;;;10.75;6.45;;;20.40;49.50;;;;;;4879954;29;20081;-57
2022/03/26 01:03:02;;;;;;;9.43;6.15;;;20.30;49.40;;;;;;4879631;29;20065;-58
2022/03/26 01:05:28;;;;;;;9.57;6.63;;;20.30;49.40;;;;;;4879925;29;20048;-57
2022/03/26 01:07:53;;;;;;;11.18;6.75;;;20.30;49.30;;;;;;4880023;29;20048;-57
2022/03/26 01:10:19;;;;;;;10.85;6.75;;;20.30;49.30;;;;;;4878723;29;20112;-58
2022/03/26 01:12:45;;;;;;;10.80;6.75;;;20.30;49.30;;;;;;4879877;29;20037;-58
2022/03/26 01:15:10;;;;;;;9.95;6.20;;;20.30;49.20;;;;;;4879819;29;20541;-58
2022/03/26 01:17:36;;;;;;;10.93;6.55;;;20.30;49.30;;;;;;4879244;29;20049;-57
2022/03/26 01:20:02;;;;;;;10.32;6.82;;;20.30;49.20;;;;;;4879642;29;20055;-58
2022/03/26 01:22:27;;;;;;;10.90;7.22;;;20.30;49.20;;;;;;4879509;29;20045;-58
2022/03/26 01:24:53;;;;;;;10.52;6.47;;;20.30;49.20;;;;;;4878733;29;20135;-58
2022/03/26 01:27:18;;;;;;;9.75;6.30;;;20.30;49.20;;;;;;4879505;29;20085;-57
2022/03/26 01:29:44;;;;;;;9.38;6.30;;;20.20;49.00;;;;;;4879906;29;20088;-57
2022/03/26 01:32:10;;;;;;;11.13;7.10;;;20.20;49.00;;;;;;4878855;29;20493;-57
2022/03/26 01:34:35;;;;;;;11.48;6.70;;;20.30;49.10;;;;;;4879037;29;20124;-58
2022/03/26 01:37:02;;;;;;;10.70;7.35;;;20.20;49.00;;;;;;4878936;29;20059;-57
2022/03/26 01:39:28;;;;;;;10.50;6.78;;;20.20;49.00;;;;;;4878113;29;20519;-58
2022/03/26 01:41:54;;;;;;;9.80;6.47;;;20.20;49.00;;;;;;4879536;29;20051;-57
2022/03/26 01:44:19;;;;;;;11.15;7.22;;;20.20;48.90;;;;;;4878278;29;20131;-58
2022/03/26 01:46:55;;;;;;;12.35;7.00;;;20.20;48.90;;;;;;4879335;29;20049;-57
2022/03/26 01:49:21;;;;;;;10.27;7.00;;;20.20;48.90;;;;;;4879285;29;20045;-57
2022/03/26 01:51:47;;;;;;;10.75;6.72;;;20.20;48.90;;;;;;4878626;29;20044;-58
2022/03/26 01:54:14;;;;;;;9.85;7.03;;;20.20;48.90;;;;;;4879094;29;20052;-58
2022/03/26 01:56:39;;;;;;;10.10;6.50;;;20.10;48.80;;;;;;4879259;29;20049;-58
2022/03/26 01:59:06;;;;;;;10.70;6.97;;;20.20;48.80;;;;;;4878273;29;20052;-58
2022/03/26 02:01:33;;;;;;;11.52;7.70;;;20.20;48.80;;;;;;4879117;29;20097;-58
2022/03/26 02:03:59;;;;;;;10.73;6.97;;;20.10;48.80;;;;;;4879346;29;20049;-58
2022/03/26 02:06:32;;;;;;;9.73;6.90;;;20.10;48.80;;;;;;4878074;29;20053;-58
2022/03/26 02:09:00;;;;;;;10.13;7.20;;;20.10;48.80;;;;;;4879358;29;20082;-58
2022/03/26 02:11:26;;;;;;;9.93;6.68;;;20.10;48.80;;;;;;4878870;29;20263;-58
2022/03/26 02:13:53;;;;;;;11.40;7.40;;;20.10;48.70;;;;;;4878143;29;20186;-58
2022/03/26 02:16:20;;;;;;;11.02;7.22;;;20.10;48.70;;;;;;4878845;29;20053;-58
2022/03/26 02:18:46;;;;;;;10.57;7.03;;;20.10;48.70;;;;;;4879168;29;20093;-58
2022/03/26 02:21:11;;;;;;;11.27;7.63;;;20.10;48.70;;;;;;4877888;29;20053;-58
2022/03/26 02:23:37;;;;;;;10.13;7.15;;;20.00;48.60;;;;;;4877107;29;20052;-58
2022/03/26 02:26:03;;;;;;;11.60;7.50;;;20.10;48.70;;;;;;4878845;29;20055;-59
2022/03/26 02:28:28;;;;;;;10.15;7.07;;;20.10;48.70;;;;;;4877664;29;20037;-59
2022/03/26 02:30:54;;;;;;;12.18;7.45;;;20.00;48.70;;;;;;4877455;29;20513;-59
2022/03/26 02:33:19;;;;;;;10.50;7.00;;;20.00;48.60;;;;;;4877901;29;20150;-59
2022/03/26 02:35:45;;;;;;;8.95;6.60;;;20.00;48.60;;;;;;4878818;29;20052;-59
2022/03/26 02:38:10;;;;;;;10.82;7.25;;;20.00;48.60;;;;;;4878519;29;20045;-59
2022/03/26 02:40:36;;;;;;;10.25;7.00;;;20.00;48.60;;;;;;4877967;29;20057;-59
2022/03/26 02:43:02;;;;;;;9.70;6.93;;;20.00;48.60;;;;;;4878543;29;20081;-59
2022/03/26 02:45:29;;;;;;;10.63;7.55;;;20.00;48.60;;;;;;4878681;29;20080;-59
2022/03/26 02:47:55;;;;;;;10.43;7.05;;;20.00;48.60;;;;;;4878036;29;20504;-59
2022/03/26 02:50:21;;;;;;;10.05;6.80;;;20.00;48.70;;;;;;4879628;29;20049;-59
2022/03/26 02:52:48;;;;;;;10.13;6.85;;;20.00;48.60;;;;;;4882404;29;20067;-59
2022/03/26 02:55:13;;;;;;;11.38;8.00;;;20.00;48.60;;;;;;4881695;29;20045;-59
2022/03/26 02:57:39;;;;;;;11.93;7.40;;;20.00;48.60;;;;;;4882515;29;20052;-59
2022/03/26 03:00:05;;;;;;;9.63;7.05;;;20.00;48.50;;;;;;4882293;29;20378;-59
2022/03/26 03:02:31;;;;;;;11.30;7.00;;;20.00;48.50;;;;;;4881465;29;20508;-59
2022/03/26 03:04:56;;;;;;;11.20;7.00;;;20.00;48.50;;;;;;4881482;29;20057;-59
2022/03/26 03:07:22;;;;;;;11.02;6.88;;;20.00;48.40;;;;;;4881510;29;20528;-59
2022/03/26 03:09:47;;;;;;;11.77;7.50;;;20.00;48.40;;;;;;4881427;29;20059;-59
2022/03/26 03:12:13;;;;;;;9.95;7.00;;;20.00;48.30;;;;;;4881950;29;20049;-59
2022/03/26 03:14:38;;;;;;;10.85;7.00;;;20.00;48.30;;;;;;4882042;29;20057;-59
2022/03/26 03:17:04;;;;;;;10.80;7.38;;;20.00;48.30;;;;;;4881671;29;20048;-59
2022/03/26 03:19:29;;;;;;;12.65;7.80;;;20.00;48.30;;;;;;4881544;29;20041;-59
2022/03/26 03:21:55;;;;;;;8.90;6.80;;;20.00;48.40;;;;;;4882043;29;20128;-59
2022/03/26 03:24:21;;;;;;;11.05;7.35;;;20.10;48.40;;;;;;4880768;29;20059;-59
2022/03/26 03:26:47;;;;;;;10.20;6.75;;;20.10;48.40;;;;;;4882191;29;20137;-59
2022/03/26 03:29:12;;;;;;;10.30;7.10;;;20.10;48.50;;;;;;4881927;29;20131;-59
2022/03/26 03:31:44;;;;;;;10.52;7.03;;;20.10;48.50;;;;;;4881518;29;20060;-58
2022/03/26 03:34:10;;;;;;;10.68;7.05;;;20.10;48.50;;;;;;4882271;29;20048;-59
2022/03/26 03:36:36;;;;;;;10.52;7.22;;;20.10;48.50;;;;;;4881108;29;20493;-59
2022/03/26 03:39:01;;;;;;;11.10;7.97;;;20.10;48.50;;;;;;4881991;29;20116;-59
2022/03/26 03:41:27;;;;;;;10.70;7.70;;;20.10;48.40;;;;;;4880858;29;20048;-59
2022/03/26 03:43:52;;;;;;;11.43;7.30;;;20.10;48.40;;;;;;4880931;29;20053;-59
2022/03/26 03:46:18;;;;;;;10.60;6.65;;;20.10;48.40;;;;;;4881419;29;20060;-59
2022/03/26 03:48:43;;;;;;;10.70;7.30;;;20.20;48.50;;;;;;4881737;29;20049;-59
2022/03/26 03:51:09;;;;;;;10.77;7.30;;;20.20;48.40;;;;;;4880819;29;20091;-59
2022/03/26 03:53:34;;;;;;;12.18;7.38;;;20.10;48.30;;;;;;4881089;29;20088;-59
2022/03/26 03:56:00;;;;;;;9.77;7.20;;;20.20;48.40;;;;;;4881387;29;20049;-59
2022/03/26 03:58:25;;;;;;;10.63;7.07;;;20.10;48.40;;;;;;4880330;29;20044;-59
2022/03/26 04:00:51;;;;;;;11.63;7.78;;;20.20;48.40;;;;;;4881127;29;20481;-59
2022/03/26 04:03:17;;;;;;;11.68;7.93;;;20.20;48.40;;;;;;4879942;29;20057;-59
2022/03/26 04:05:43;;;;;;;10.73;7.38;;;20.20;48.40;;;;;;4879111;29;20101;-59
2022/03/26 04:08:08;;;;;;;11.20;7.72;;;20.20;48.40;;;;;;4879725;29;20076;-59
2022/03/26 04:10:34;;;;;;;9.70;7.20;;;20.20;48.40;;;;;;4880788;29;20127;-59
2022/03/26 04:12:59;;;;;;;10.13;6.80;;;20.20;48.40;;;;;;4880070;29;20057;-59
2022/03/26 04:15:25;;;;;;;12.85;8.25;;;20.20;48.40;;;;;;4880973;29;20049;-60
2022/03/26 04:17:52;;;;;;;9.85;6.78;;;20.20;48.40;;;;;;4881055;29;20049;-60
2022/03/26 04:20:18;;;;;;;11.48;7.50;;;20.20;48.40;;;;;;4880119;29;20053;-59
2022/03/26 04:22:43;;;;;;;11.93;8.10;;;20.20;48.40;;;;;;4881021;29;20053;-60
2022/03/26 04:25:10;;;;;;;10.85;7.60;;;20.30;48.30;;;;;;4880948;29;20100;-59
2022/03/26 04:27:35;;;;;;;11.23;7.90;;;20.20;48.30;;;;;;4879956;29;20486;-59
2022/03/26 04:30:01;;;;;;;11.25;7.57;;;20.20;48.20;;;;;;4880766;29;20041;-59
2022/03/26 04:32:26;;;;;;;10.18;7.63;;;20.20;48.20;;;;;;4880467;29;20080;-59
2022/03/26 04:34:52;;;;;;;11.43;7.95;;;20.20;48.20;;;;;;4880143;29;20041;-59
2022/03/26 04:37:17;;;;;;;11.45;7.10;;;20.30;48.40;;;;;;4880250;29;20048;-59
2022/03/26 04:39:43;;;;;;;12.20;8.00;;;20.20;48.20;;;;;;4880678;29;20501;-59
2022/03/26 04:42:09;;;;;;;11.32;7.80;;;20.30;48.30;;;;;;4880387;29;20048;-59
2022/03/26 04:44:35;;;;;;;11.55;7.63;;;20.30;48.20;;;;;;4880065;29;20061;-59
2022/03/26 04:47:01;;;;;;;10.90;7.57;;;20.30;48.20;;;;;;4879790;29;20049;-59
2022/03/26 04:49:26;;;;;;;11.38;8.48;;;20.20;48.10;;;;;;4880357;29;20052;-59
2022/03/26 04:51:52;;;;;;;10.88;7.93;;;20.30;48.20;;;;;;4880501;29;20045;-59
2022/03/26 04:54:17;;;;;;;10.30;7.43;;;20.30;48.10;;;;;;4879321;29;20056;-59
2022/03/26 04:56:43;;;;;;;11.68;8.05;;;20.20;48.10;;;;;;4880382;29;20482;-59
2022/03/26 04:59:08;;;;;;;11.88;8.48;;;20.20;48.10;;;;;;4880189;29;20561;-60
2022/03/26 05:01:34;;;;;;;9.77;7.13;;;20.20;48.10;;;;;;4867774;29;20490;-59
2022/03/26 05:03:59;;;;;;;11.77;7.80;;;20.20;48.10;;;;;;4861512;29;20045;-59
2022/03/26 05:06:25;;;;;;;11.50;7.70;;;20.30;48.10;;;;;;4860692;29;20045;-59
2022/03/26 05:08:51;;;;;;;10.80;8.20;;;20.20;48.10;;;;;;4860614;29;20050;-59
2022/03/26 05:11:16;;;;;;;11.18;7.95;;;20.30;48.20;;;;;;4861368;29;20128;-59
2022/03/26 05:13:42;;;;;;;10.90;7.38;;;20.30;48.20;;;;;;4860846;29;20487;-59
2022/03/26 05:16:07;;;;;;;11.88;8.13;;;20.20;48.00;;;;;;4860760;29;20049;-59
2022/03/26 05:18:35;;;;;;;11.52;7.50;;;20.30;48.10;;;;;;4861233;29;20406;-59
2022/03/26 05:21:01;;;;;;;13.55;8.48;;;20.30;48.20;;;;;;4861325;29;20446;-59
2022/03/26 05:23:26;;;;;;;11.02;7.85;;;20.30;48.10;;;;;;4860253;29;20490;-59
2022/03/26 05:25:52;;;;;;;9.68;7.57;;;20.30;48.10;;;;;;4861419;29;20041;-59
2022/03/26 05:28:18;;;;;;;11.15;7.55;;;20.30;48.00;;;;;;4861017;29;20492;-59
2022/03/26 05:30:43;;;;;;;11.45;7.88;;;20.30;48.00;;;;;;4860238;29;20056;-59
2022/03/26 05:33:09;;;;;;;12.15;7.18;;;20.30;48.00;;;;;;4861348;29;20065;-59
2022/03/26 05:35:34;;;;;;;10.65;7.43;;;20.30;48.00;;;;;;4860875;29;20045;-59
2022/03/26 05:38:00;;;;;;;12.35;7.70;;;20.30;47.90;;;;;;4859820;29;20371;-59
2022/03/26 05:40:26;;;;;;;10.60;7.38;;;20.30;47.90;;;;;;4860795;29;20045;-59
2022/03/26 05:42:52;;;;;;;11.38;8.00;;;20.30;47.90;;;;;;4860962;29;20049;-59
2022/03/26 05:45:18;;;;;;;9.93;7.25;;;20.30;47.90;;;;;;4859733;29;20067;-59
2022/03/26 05:47:43;;;;;;;9.73;6.97;;;20.30;47.90;;;;;;4861015;29;20486;-59
2022/03/26 05:50:10;;;;;;;11.13;8.13;;;20.30;47.90;;;;;;4860164;29;20052;-59
2022/03/26 05:52:36;;;;;;;11.93;7.40;;;20.30;47.90;;;;;;4860965;29;20065;-59
2022/03/26 05:55:01;;;;;;;11.05;7.90;;;20.30;48.60;;;;;;4861010;29;20410;-59
2022/03/26 05:57:27;;;;;;;10.77;7.78;;;20.30;47.90;;;;;;4859527;29;20061;-59
2022/03/26 05:59:52;;;;;;;12.90;7.82;;;20.30;47.90;;;;;;4860610;29;20057;-59
2022/03/26 06:02:18;;;;;;;10.52;7.70;;;20.30;47.90;;;;;;4860333;29;20049;-59
2022/03/26 06:04:44;;;;;;;11.23;7.57;;;20.30;47.80;;;;;;4859719;29;20472;-59
2022/03/26 06:07:09;;;;;;;11.80;7.82;;;20.30;47.90;;;;;;4860424;29;20048;-59
2022/03/26 06:09:35;;;;;;;11.20;8.10;;;20.30;47.90;;;;;;4860366;29;20510;-59
2022/03/26 06:12:01;;;;;;;10.88;7.38;;;20.30;47.80;;;;;;4859617;29;20459;-59
2022/03/26 06:14:26;;;;;;;11.27;7.93;;;20.30;47.80;;;;;;4859642;29;20094;-60
2022/03/26 06:16:52;;;;;;;10.27;7.22;;;20.30;47.80;;;;;;4860626;29;20081;-59
2022/03/26 06:19:18;;;;;;;10.57;7.85;;;20.40;47.80;;;;;;4859669;29;20056;-59
2022/03/26 06:21:43;;;;;;;10.18;7.50;;;20.30;47.80;;;;;;4860421;29;20053;-59
2022/03/26 06:24:09;;;;;;;10.57;7.78;;;20.30;47.80;;;;;;4859976;29;20057;-60
2022/03/26 06:26:39;;;;;;;11.32;7.80;;;20.40;47.80;;;;;;4859085;29;20046;-59
2022/03/26 06:29:05;;;;;;;11.15;8.38;;;20.40;47.80;;;;;;4860389;29;20060;-59
2022/03/26 06:31:30;;;;;;;11.27;7.75;;;20.40;47.70;;;;;;4860164;29;20441;-59
2022/03/26 06:33:56;;;;;;;10.57;7.88;;;20.40;47.80;;;;;;4859763;29;20512;-59
2022/03/26 06:36:22;;;;;;;12.18;7.68;;;20.40;47.70;;;;;;4860090;29;20393;-60
2022/03/26 06:38:50;;;;;;;12.10;8.10;;;20.40;47.70;;;;;;4860240;29;20109;-59
2022/03/26 06:41:18;;;;;;;;;;;20.40;47.60;;;;;;4858183;29;20398;-60
2022/03/26 06:43:44;;;;;;;11.38;7.63;;;20.40;47.70;;;;;;4860110;29;19986;-59
2022/03/26 06:46:09;;;;;;;10.35;7.88;;;20.40;47.70;;;;;;4860423;29;20486;-59
2022/03/26 06:48:35;;;;;;;10.77;7.22;;;20.40;47.70;;;;;;4859371;29;20046;-59
2022/03/26 06:51:01;;;;;;;10.90;7.35;;;20.50;47.70;;;;;;4859097;29;20045;-59
2022/03/26 06:53:28;;;;;;;10.32;7.45;;;20.50;47.70;;;;;;4859259;29;20128;-60
2022/03/26 06:55:53;;;;;;;10.32;7.38;;;20.50;47.60;;;;;;4860251;29;20050;-60
2022/03/26 06:58:19;;;;;;;10.25;7.20;;;20.50;47.60;;;;;;4859919;29;20053;-59
2022/03/26 07:00:44;;;;;;;9.45;6.88;;;20.50;47.70;;;;;;4859296;29;20834;-60
2022/03/26 07:03:10;;;;;;;9.93;7.15;;;20.50;47.60;;;;;;4859988;29;20140;-59
2022/03/26 07:05:35;;;;;;;10.00;6.95;;;20.50;47.60;;;;;;4859964;29;20085;-59
2022/03/26 07:08:02;;;;;;;15.88;8.60;;;20.50;47.70;;;;;;4859137;29;20049;-59
2022/03/26 07:10:27;;;;;;;11.05;8.00;;;20.60;47.70;;;;;;4859775;29;20053;-59
2022/03/26 07:12:53;;;;;;;11.88;7.25;;;20.60;47.70;;;;;;4859910;29;20051;-59
2022/03/26 07:15:18;;;;;;;10.65;7.68;;;20.60;47.70;;;;;;4859150;29;20101;-58
2022/03/26 07:17:44;;;;;;;10.20;7.22;;;20.60;47.80;;;;;;4860087;29;20053;-59
2022/03/26 07:20:11;;;;;;;11.20;7.28;;;20.60;47.90;;;;;;4860217;29;20041;-59
2022/03/26 07:22:36;;;;;;;10.88;7.15;;;20.70;47.90;;;;;;4859036;29;20054;-59
2022/03/26 07:25:04;;;;;;;14.00;7.50;;;20.70;48.00;;;;;;4869763;29;20079;-59
2022/03/26 07:27:32;;;;;;;10.17;6.67;;;20.70;48.00;;;;;;4877825;29;20392;-60
2022/03/26 07:29:57;;;;;;;;;;;20.70;48.00;;;;;;4878125;29;20301;-59
2022/03/26 07:32:23;;;;;;;10.65;7.20;;;20.70;48.20;;;;;;4878005;29;19923;-59
2022/03/26 07:34:49;;;;;;;10.35;7.00;;;20.80;48.20;;;;;;4878012;29;20045;-59
2022/03/26 07:37:14;;;;;;;10.73;7.32;;;20.80;48.30;;;;;;4879534;29;20128;-59
2022/03/26 07:39:40;;;;;;;11.43;7.32;;;20.80;48.30;;;;;;4881348;29;20052;-59
2022/03/26 07:42:06;;;;;;;11.85;7.35;;;20.80;48.40;;;;;;4880633;29;20056;-59
2022/03/26 07:44:31;;;;;;;11.57;7.55;;;20.90;48.50;;;;;;4880151;29;20041;-61
2022/03/26 07:46:57;;;;;;;12.93;7.45;;;20.90;48.70;;;;;;4881517;29;20105;-60
2022/03/26 07:49:22;;;;;;;10.10;7.20;;;20.90;48.80;;;;;;4881396;29;20045;-60
2022/03/26 07:51:48;;;;;;;12.85;7.68;;;20.90;49.00;;;;;;4880953;29;20041;-59
2022/03/26 07:54:13;;;;;;;10.70;7.57;;;20.90;49.10;;;;;;4880425;29;20074;-58
2022/03/26 07:56:39;;;;;;;11.02;6.85;;;21.00;49.30;;;;;;4880722;29;20481;-59
2022/03/26 07:59:04;;;;;;;12.38;7.55;;;21.00;49.40;;;;;;4880663;29;20049;-59
2022/03/26 08:01:30;;;;;;;10.98;7.07;;;21.00;49.40;;;;;;4880294;29;20060;-59
2022/03/26 08:03:55;;;;;;;11.52;7.30;;;21.00;49.40;;;;;;4880118;29;20442;-58
2022/03/26 08:06:21;;;;;;;12.57;8.15;;;21.10;49.60;;;;;;4880456;29;20051;-58
2022/03/26 08:08:47;;;;;;;12.23;8.38;;;21.10;49.60;;;;;;4880554;29;20060;-58
2022/03/26 08:11:13;;;;;;;15.38;8.05;;;21.10;49.60;;;;;;4879591;29;20041;-59
2022/03/26 08:13:38;;;;;;;12.77;7.97;;;21.10;49.60;;;;;;4880322;29;20104;-59
2022/03/26 08:16:04;;;;;;;11.27;7.35;;;21.20;49.70;;;;;;4880617;29;20505;-59
2022/03/26 08:18:30;;;;;;;9.38;7.20;;;21.20;49.70;;;;;;4879551;29;20045;-59
2022/03/26 08:20:56;;;;;;;11.90;7.38;;;21.20;49.80;;;;;;4880612;29;20044;-59
2022/03/26 08:23:21;;;;;;;12.18;7.70;;;21.20;49.80;;;;;;4879038;29;20053;-59
2022/03/26 08:28:31;;;;;;;11.02;7.68;;;21.30;49.90;;;;;;4880723;29;20489;-59
2022/03/26 08:30:57;;;;;;;10.63;7.68;;;21.30;49.90;;;;;;4881067;29;20049;-59
2022/03/26 08:33:22;;;;;;;12.30;7.35;;;21.30;50.00;;;;;;4880004;29;20064;-59
2022/03/26 08:35:48;;;;;;;12.65;7.53;;;21.40;50.00;;;;;;4880050;29;20383;-59
2022/03/26 08:38:13;;;;;;;10.55;7.10;;;21.40;50.10;;;;;;4879724;29;20074;-59
2022/03/26 08:40:39;;;;;;;11.63;7.28;;;21.40;50.20;;;;;;4879934;29;20041;-60
2022/03/26 08:43:06;;;;;;;13.60;7.85;;;21.40;50.30;;;;;;4879562;29;20180;-58
2022/03/26 08:45:32;;;;;;;11.23;7.82;;;21.50;50.30;;;;;;4879138;29;20415;-59
2022/03/26 08:47:57;;;;;;;10.70;7.65;;;21.50;50.30;;;;;;4878850;29;20545;-59
2022/03/26 08:50:23;;;;;;;14.45;7.50;;;21.50;50.30;;;;;;4879631;29;20041;-59
2022/03/26 08:52:49;;;;;;;13.45;8.43;;;21.50;50.40;;;;;;4879868;29;20128;-59
2022/03/26 08:55:17;;;;;;;14.00;7.82;;;21.50;50.30;;;;;;4878973;29;20104;-59
2022/03/26 08:57:43;;;;;;;12.75;7.72;;;21.50;50.30;;;;;;4879909;29;20049;-59
2022/03/26 09:00:09;;;;;;;11.95;7.80;;;21.50;50.30;;;;;;4879628;29;20041;-59
2022/03/26 09:02:35;;;;;;;11.18;7.15;;;21.60;50.30;;;;;;4879871;29;20060;-59
2022/03/26 09:05:00;;;;;;;11.63;7.65;;;21.60;50.30;;;;;;4880209;29;20048;-59
2022/03/26 09:07:26;;;;;;;12.32;7.53;;;21.60;51.10;;;;;;4879069;29;20049;-59
2022/03/26 09:09:51;;;;;;;10.52;7.43;;;21.60;50.40;;;;;;4880139;29;20104;-59
2022/03/26 09:12:17;;;;;;;11.05;7.40;;;21.60;50.40;;;;;;4879546;29;20069;-59
2022/03/26 09:14:43;;;;;;;10.43;7.07;;;21.60;50.40;;;;;;4877821;29;20060;-59
2022/03/26 09:17:09;;;;;;;11.15;6.57;;;21.60;50.40;;;;;;4879346;29;20128;-59
2022/03/26 09:19:35;;;;;;;13.05;6.63;;;21.60;50.40;;;;;;4878857;29;20041;-59
2022/03/26 09:22:01;;;;;;;10.20;6.43;;;21.60;50.40;;;;;;4878593;29;20588;-59
2022/03/26 09:24:26;;;;;;;11.13;7.15;;;21.60;50.50;;;;;;4878527;29;20055;-59
2022/03/26 09:26:52;;;;;;;10.43;6.88;;;21.60;50.50;;;;;;4878966;29;20128;-60
2022/03/26 09:29:17;;;;;;;11.07;7.40;;;21.60;50.40;;;;;;4878221;29;20048;-60
2022/03/26 09:31:43;;;;;;;10.85;7.20;;;21.60;50.30;;;;;;4879782;29;20045;-59
2022/03/26 09:34:09;;;;;;;12.50;7.55;;;21.70;50.40;;;;;;4878846;29;20498;-59
2022/03/26 09:36:34;;;;;;;12.90;8.02;;;21.70;50.40;;;;;;4877896;29;20508;-59
2022/03/26 09:39:00;;;;;;;11.98;7.55;;;21.60;50.40;;;;;;4878985;29;20060;-59
2022/03/26 09:41:26;;;;;;;12.65;7.18;;;21.70;50.40;;;;;;4879322;29;20060;-59
2022/03/26 09:43:52;;;;;;;9.98;6.50;;;21.70;50.30;;;;;;4878298;29;20049;-58
2022/03/26 09:46:17;;;;;;;12.27;7.43;;;21.70;50.30;;;;;;4871966;29;20041;-60
2022/03/26 09:48:43;;;;;;;11.57;6.55;;;21.70;50.30;;;;;;4878595;29;20045;-59
2022/03/26 09:51:09;;;;;;;10.18;6.75;;;21.70;50.40;;;;;;4877915;29;20045;-59
2022/03/26 09:53:34;;;;;;;13.85;7.43;;;21.70;50.50;;;;;;4876933;29;20049;-59
2022/03/26 09:56:00;;;;;;;10.43;6.82;;;21.70;50.60;;;;;;4878814;29;20093;-59
2022/03/26 09:58:25;;;;;;;9.63;6.80;;;21.70;50.70;;;;;;4878131;29;20176;-59
2022/03/26 10:00:53;;;;;;;10.32;7.07;;;21.70;50.80;;;;;;4878290;29;20416;-58
2022/03/26 10:03:19;;;;;;;10.77;6.70;;;21.70;51.40;;;;;;4878137;29;20045;-59
2022/03/26 10:05:44;;;;;;;11.02;7.43;;;21.70;51.20;;;;;;4878335;29;20711;-59
2022/03/26 10:08:20;;;;;;;11.07;7.07;;;21.70;50.40;;;;;;4878001;29;20049;-59
2022/03/26 10:10:45;;;;;;;12.48;7.45;;;21.70;50.40;;;;;;4878507;29;20052;-60
2022/03/26 10:13:12;;;;;;;11.32;7.40;;;21.70;50.40;;;;;;4878064;29;20060;-60
2022/03/26 10:15:58;;;;;;;12.10;7.53;;;21.70;50.50;;;;;;4879031;29;20053;-59
2022/03/26 10:18:23;;;;;;;10.95;7.63;;;21.70;51.20;;;;;;4876779;29;20049;-60
2022/03/26 10:20:59;;;;;;;11.43;7.05;;;21.80;50.60;;;;;;4878561;29;20097;-59
2022/03/26 10:23:28;;;;;;;12.15;7.57;;;21.70;50.60;;;;;;4877939;29;20382;-59
2022/03/26 10:26:07;;;;;;;11.00;7.38;;;21.70;50.70;;;;;;4877548;29;20053;-58
2022/03/26 10:28:32;;;;;;;11.00;7.80;;;21.70;50.70;;;;;;4876674;29;20486;-59
2022/03/26 10:34:03;;;;;;;12.25;7.95;;;21.70;50.80;;;;;;4878890;29;20057;-59
2022/03/26 10:36:29;;;;;;;11.13;7.90;;;21.80;50.80;;;;;;4878644;29;20072;-59
2022/03/26 10:38:54;;;;;;;11.45;8.00;;;21.80;50.80;;;;;;4877886;29;20085;-59
2022/03/26 10:41:21;;;;;;;11.38;7.47;;;21.80;50.80;;;;;;4877762;29;20131;-59
2022/03/26 10:43:46;;;;;;;14.98;7.30;;;21.80;50.80;;;;;;4877679;29;20041;-60
2022/03/26 10:46:12;;;;;;;11.43;7.75;;;21.80;50.80;;;;;;4877478;29;20072;-58
2022/03/26 10:48:38;;;;;;;11.15;7.50;;;21.80;51.60;;;;;;4880000;29;20557;-58
2022/03/26 10:51:08;;;;;;;10.68;7.10;;;21.80;50.70;;;;;;4879369;29;20049;-59
2022/03/26 10:53:34;;;;;;;10.57;6.70;;;21.80;50.60;;;;;;4877660;29;20097;-59
2022/03/26 10:56:00;;;;;;;11.25;7.22;;;21.80;50.50;;;;;;4878695;29;20049;-60
2022/03/26 10:58:26;;;;;;;12.73;8.75;;;21.80;50.40;;;;;;4877101;29;20060;-60
2022/03/26 11:00:51;;;;;;;14.95;8.70;;;21.80;50.60;;;;;;4877056;29;20419;-60
2022/03/26 11:03:17;;;;;;;12.85;8.60;;;21.80;50.90;;;;;;4876708;29;20481;-59
2022/03/26 11:05:42;;;;;;;13.82;9.25;;;21.80;50.80;;;;;;4878532;29;20089;-59
2022/03/26 11:08:09;;;;;;;12.77;9.00;;;21.80;50.90;;;;;;4876312;29;20120;-59
2022/03/26 11:10:34;;;;;;;12.57;8.57;;;21.80;50.80;;;;;;4877426;29;20064;-60
2022/03/26 11:13:01;;;;;;;11.43;9.02;;;21.80;50.80;;;;;;4880392;29;20048;-59
2022/03/26 11:15:32;;;;;;;12.48;8.63;;;21.80;50.80;;;;;;4878920;29;20045;-59
2022/03/26 11:18:19;;;;;;;12.32;8.77;;;21.80;50.80;;;;;;4881038;29;20053;-59
2022/03/26 11:21:23;;;;;;;13.88;8.50;;;21.80;50.70;;;;;;4879658;29;20129;-59
2022/03/26 11:23:54;;;;;;;11.82;8.85;;;21.90;50.80;;;;;;4881911;29;20159;-59
2022/03/26 11:26:36;;;;;;;11.95;8.90;;;21.90;50.90;;;;;;4881575;29;20056;-59
2022/03/26 11:29:20;;;;;;;11.20;8.32;;;21.80;50.70;;;;;;4880083;29;20056;-59
2022/03/26 11:32:00;;;;;;;12.27;8.50;;;21.90;50.70;;;;;;4881800;29;20049;-60
2022/03/26 11:34:26;;;;;;;11.55;8.27;;;21.90;50.70;;;;;;4880327;29;20041;-59
2022/03/26 11:36:51;;;;;;;12.27;9.93;;;21.90;50.80;;;;;;4864045;29;20525;-60
2022/03/26 11:39:22;;;;;;;12.95;9.00;;;21.90;50.80;;;;;;4879259;29;20064;-58
2022/03/26 11:41:47;;;;;;;12.10;8.30;;;21.90;50.70;;;;;;4881550;29;20149;-59
2022/03/26 11:44:16;;;;;;;12.10;8.18;;;21.90;50.60;;;;;;4881414;29;20132;-59
2022/03/26 11:52:30;;;;;;;11.23;8.10;;;21.90;50.20;;;;;;4881287;29;20057;-59
2022/03/26 11:55:22;;;;;;;11.48;8.68;;;21.90;50.30;;;;;;4881961;29;20059;-59
2022/03/26 11:57:55;;;;;;;10.30;7.85;;;21.90;50.20;;;;;;4880005;29;20084;-59
2022/03/26 12:00:21;;;;;;;10.65;8.18;;;21.90;50.30;;;;;;4863928;29;20045;-59
2022/03/26 12:02:49;;;;;;;12.70;7.65;;;21.90;50.30;;;;;;4881402;29;20060;-58
2022/03/26 12:08:34;;;;;;;11.98;8.02;;;21.90;50.20;;;;;;4881201;29;20049;-59
2022/03/26 12:10:59;;;;;;;14.38;8.18;;;21.90;50.20;;;;;;4880518;29;20053;-59
2022/03/26 12:13:25;;;;;;;13.95;7.63;;;21.90;50.20;;;;;;4880847;29;20076;-58
2022/03/26 12:16:03;;;;;;;11.65;7.85;;;21.90;50.10;;;;;;4879737;29;20446;-59
2022/03/26 12:18:36;;;;;;;11.45;7.55;;;21.90;50.00;;;;;;4880173;29;20170;-60
2022/03/26 12:21:23;;;;;;;9.82;7.30;;;22.00;50.10;;;;;;4888244;29;20044;-59
2022/03/26 12:23:49;;;;;;;11.87;7.77;;;21.90;50.00;;;;;;4898720;29;20045;-59
2022/03/26 12:26:14;;;;;;;10.52;7.28;;;22.00;50.10;;;;;;4880146;29;20469;-59
2022/03/26 12:28:41;;;;;;;11.88;8.05;;;21.90;50.00;;;;;;4878364;29;20045;-59
2022/03/26 12:31:08;;;;;;;11.85;6.57;;;21.90;50.00;;;;;;4879629;29;20045;-59
2022/03/26 12:33:46;;;;;;;12.05;7.38;;;21.90;49.90;;;;;;4879714;29;20111;-59
2022/03/26 12:36:12;;;;;;;11.88;7.32;;;22.00;49.90;;;;;;4880013;29;20485;-60
2022/03/26 12:38:38;;;;;;;12.93;7.07;;;22.00;50.00;;;;;;4879289;29;20120;-59
2022/03/26 12:41:04;;;;;;;13.40;7.22;;;22.00;50.00;;;;;;4882158;29;20180;-60
2022/03/26 12:43:30;;;;;;;10.57;6.60;;;22.00;50.10;;;;;;4897546;29;20075;-60
2022/03/26 12:45:57;;;;;;;11.30;6.40;;;22.00;50.10;;;;;;4898111;29;20045;-61
2022/03/26 12:48:26;;;;;;;9.98;6.40;;;22.00;50.20;;;;;;4899042;29;20128;-60
2022/03/26 12:50:52;;;;;;;10.95;6.97;;;22.00;50.20;;;;;;4897945;29;20040;-60